sensor_id;sensor_type;location;lat;lon;timestamp;P1;durP1;ratioP1;P2;durP2;ratioP2
20954;SDS011;10636;19.390;-99.256;2023-03-24T00:01:28;11.07;;;9.20;;
20954;SDS011;10636;19.390;-99.256;2023-03-24T00:03:57;12.20;;;9.38;;
20954;SDS011;10636;19.390;-99.256;2023-03-24T00:06:25;10.43;;;9.40;;
20954;SDS011;10636;19.390;-99.256;2023-03-24T00:08:54;9.95;;;9.02;;
20954;SDS011;10636;19.390;-99.256;2023-03-24T00:11:22;9.82;;;8.75;;
20954;SDS011;10636;19.390;-99.256;2023-03-24T00:13:51;9.40;;;8.50;;
20954;SDS011;10636;19.390;-99.256;2023-03-24T00:16:33;9.65;;;8.63;;
20954;SDS011;10636;19.390;-99.256;2023-03-24T00:19:07;9.43;;;8.52;;
20954;SDS011;10636;19.390;-99.256;2023-03-24T00:21:38;9.80;;;8.77;;
20954;SDS011;10636;19.390;-99.256;2023-03-24T00:24:08;9.88;;;8.88;;
20954;SDS011;10636;19.390;-99.256;2023-03-24T00:26:40;9.80;;;8.85;;
20954;SDS011;10636;19.390;-99.256;2023-03-24T00:29:09;9.52;;;8.60;;
20954;SDS011;10636;19.390;-99.256;2023-03-24T00:31:42;11.68;;;8.82;;
20954;SDS011;10636;19.390;-99.256;2023-03-24T00:34:14;9.65;;;8.25;;
20954;SDS011;10636;19.390;-99.256;2023-03-24T00:36:42;8.05;;;7.35;;
20954;SDS011;10636;19.390;-99.256;2023-03-24T00:39:11;9.57;;;8.68;;
20954;SDS011;10636;19.390;-99.256;2023-03-24T00:41:49;9.13;;;8.25;;
20954;SDS011;10636;19.390;-99.256;2023-03-24T00:44:18;8.60;;;7.80;;
20954;SDS011;10636;19.390;-99.256;2023-03-24T00:46:48;9.45;;;8.10;;
20954;SDS011;10636;19.390;-99.256;2023-03-24T00:49:21;9.07;;;8.27;;
20954;SDS011;10636;19.390;-99.256;2023-03-24T00:52:07;9.02;;;8.13;;
20954;SDS011;10636;19.390;-99.256;2023-03-24T00:54:36;9.02;;;8.13;;
20954;SDS011;10636;19.390;-99.256;2023-03-24T00:57:10;8.93;;;8.00;;
20954;SDS011;10636;19.390;-99.256;2023-03-24T00:59:40;8.10;;;7.28;;
20954;SDS011;10636;19.390;-99.256;2023-03-24T01:02:14;8.95;;;7.93;;
20954;SDS011;10636;19.390;-99.256;2023-03-24T01:04:44;8.50;;;7.70;;
20954;SDS011;10636;19.390;-99.256;2023-03-24T01:07:14;9.40;;;8.10;;
20954;SDS011;10636;19.390;-99.256;2023-03-24T01:09:44;8.30;;;7.43;;
20954;SDS011;10636;19.390;-99.256;2023-03-24T01:12:22;8.60;;;7.78;;
20954;SDS011;10636;19.390;-99.256;2023-03-24T01:14:55;8.95;;;8.15;;
20954;SDS011;10636;19.390;-99.256;2023-03-24T01:17:26;9.02;;;8.13;;
20954;SDS011;10636;19.390;-99.256;2023-03-24T01:19:55;8.85;;;8.05;;
20954;SDS011;10636;19.390;-99.256;2023-03-24T01:22:27;9.13;;;8.20;;
20954;SDS011;10636;19.390;-99.256;2023-03-24T01:25:05;9.90;;;8.82;;
20954;SDS011;10636;19.390;-99.256;2023-03-24T01:27:34;9.48;;;7.80;;
20954;SDS011;10636;19.390;-99.256;2023-03-24T01:30:10;8.27;;;7.57;;
20954;SDS011;10636;19.390;-99.256;2023-03-24T01:32:42;9.82;;;8.30;;
20954;SDS011;10636;19.390;-99.256;2023-03-24T01:35:10;10.20;;;8.20;;
20954;SDS011;10636;19.390;-99.256;2023-03-24T01:37:39;8.65;;;7.90;;
20954;SDS011;10636;19.390;-99.256;2023-03-24T01:40:08;8.80;;;8.00;;
20954;SDS011;10636;19.390;-99.256;2023-03-24T01:42:42;9.80;;;7.78;;
20954;SDS011;10636;19.390;-99.256;2023-03-24T01:48:21;11.02;;;8.55;;
20954;SDS011;10636;19.390;-99.256;2023-03-24T01:50:56;13.23;;;9.68;;
20954;SDS011;10636;19.390;-99.256;2023-03-24T01:53:27;11.38;;;9.93;;
20954;SDS011;10636;19.390;-99.256;2023-03-24T01:56:00;11.70;;;9.60;;
20954;SDS011;10636;19.390;-99.256;2023-03-24T01:58:31;9.52;;;8.52;;
20954;SDS011;10636;19.390;-99.256;2023-03-24T02:01:02;9.38;;;8.38;;
20954;SDS011;10636;19.390;-99.256;2023-03-24T02:03:35;9.07;;;8.00;;
20954;SDS011;10636;19.390;-99.256;2023-03-24T02:06:06;9.32;;;8.43;;
20954;SDS011;10636;19.390;-99.256;2023-03-24T02:08:37;8.63;;;7.90;;
20954;SDS011;10636;19.390;-99.256;2023-03-24T02:11:08;9.90;;;8.02;;
20954;SDS011;10636;19.390;-99.256;2023-03-24T02:13:37;8.18;;;7.47;;
20954;SDS011;10636;19.390;-99.256;2023-03-24T02:16:14;9.65;;;7.93;;
20954;SDS011;10636;19.390;-99.256;2023-03-24T02:22:18;8.52;;;7.72;;
20954;SDS011;10636;19.390;-99.256;2023-03-24T02:25:24;10.88;;;7.60;;
20954;SDS011;10636;19.390;-99.256;2023-03-24T02:28:19;8.60;;;7.75;;
20954;SDS011;10636;19.390;-99.256;2023-03-24T02:31:20;8.43;;;7.53;;
20954;SDS011;10636;19.390;-99.256;2023-03-24T02:34:11;8.63;;;7.70;;
20954;SDS011;10636;19.390;-99.256;2023-03-24T02:40:09;9.10;;;7.95;;
20954;SDS011;10636;19.390;-99.256;2023-03-24T02:42:55;9.27;;;7.55;;
20954;SDS011;10636;19.390;-99.256;2023-03-24T02:45:35;9.30;;;7.47;;
20954;SDS011;10636;19.390;-99.256;2023-03-24T02:48:21;10.43;;;7.90;;
20954;SDS011;10636;19.390;-99.256;2023-03-24T02:51:06;9.90;;;8.13;;
20954;SDS011;10636;19.390;-99.256;2023-03-24T02:53:42;8.88;;;7.72;;
20954;SDS011;10636;19.390;-99.256;2023-03-24T02:56:21;8.60;;;7.75;;
20954;SDS011;10636;19.390;-99.256;2023-03-24T02:58:58;9.25;;;8.27;;
20954;SDS011;10636;19.390;-99.256;2023-03-24T03:01:30;8.45;;;7.65;;
20954;SDS011;10636;19.390;-99.256;2023-03-24T03:04:05;8.90;;;8.00;;
20954;SDS011;10636;19.390;-99.256;2023-03-24T03:06:37;10.98;;;7.93;;
20954;SDS011;10636;19.390;-99.256;2023-03-24T03:09:07;8.88;;;7.50;;
20954;SDS011;10636;19.390;-99.256;2023-03-24T03:11:42;8.18;;;7.28;;
20954;SDS011;10636;19.390;-99.256;2023-03-24T03:14:16;8.23;;;7.43;;
20954;SDS011;10636;19.390;-99.256;2023-03-24T03:16:49;8.65;;;7.85;;
20954;SDS011;10636;19.390;-99.256;2023-03-24T03:19:27;10.63;;;7.93;;
20954;SDS011;10636;19.390;-99.256;2023-03-24T03:22:07;10.38;;;8.27;;
20954;SDS011;10636;19.390;-99.256;2023-03-24T03:24:43;8.70;;;7.78;;
20954;SDS011;10636;19.390;-99.256;2023-03-24T03:27:17;9.73;;;8.73;;
20954;SDS011;10636;19.390;-99.256;2023-03-24T03:29:52;10.73;;;8.50;;
20954;SDS011;10636;19.390;-99.256;2023-03-24T03:32:25;9.90;;;8.82;;
20954;SDS011;10636;19.390;-99.256;2023-03-24T03:35:04;10.80;;;9.70;;
20954;SDS011;10636;19.390;-99.256;2023-03-24T03:37:39;10.20;;;9.15;;
20954;SDS011;10636;19.390;-99.256;2023-03-24T03:40:19;10.30;;;9.20;;
20954;SDS011;10636;19.390;-99.256;2023-03-24T03:42:52;11.65;;;10.20;;
20954;SDS011;10636;19.390;-99.256;2023-03-24T03:45:21;11.15;;;9.95;;
20954;SDS011;10636;19.390;-99.256;2023-03-24T03:47:55;13.40;;;9.93;;
20954;SDS011;10636;19.390;-99.256;2023-03-24T03:50:24;11.43;;;9.95;;
20954;SDS011;10636;19.390;-99.256;2023-03-24T03:52:52;11.55;;;10.38;;
20954;SDS011;10636;19.390;-99.256;2023-03-24T03:55:22;14.20;;;10.52;;
20954;SDS011;10636;19.390;-99.256;2023-03-24T03:57:52;13.57;;;10.25;;
20954;SDS011;10636;19.390;-99.256;2023-03-24T04:00:22;13.68;;;10.57;;
20954;SDS011;10636;19.390;-99.256;2023-03-24T04:02:55;11.70;;;10.30;;
20954;SDS011;10636;19.390;-99.256;2023-03-24T04:05:45;11.60;;;10.50;;
20954;SDS011;10636;19.390;-99.256;2023-03-24T04:08:21;12.65;;;10.35;;
20954;SDS011;10636;19.390;-99.256;2023-03-24T04:14:18;13.10;;;10.57;;
20954;SDS011;10636;19.390;-99.256;2023-03-24T04:17:08;11.52;;;10.35;;
20954;SDS011;10636;19.390;-99.256;2023-03-24T04:19:56;14.30;;;10.68;;
20954;SDS011;10636;19.390;-99.256;2023-03-24T04:22:41;15.00;;;10.07;;
20954;SDS011;10636;19.390;-99.256;2023-03-24T04:25:27;18.60;;;10.98;;
20954;SDS011;10636;19.390;-99.256;2023-03-24T04:28:07;12.57;;;10.75;;
20954;SDS011;10636;19.390;-99.256;2023-03-24T04:33:54;12.10;;;10.85;;
20954;SDS011;10636;19.390;-99.256;2023-03-24T04:36:38;13.15;;;10.80;;
20954;SDS011;10636;19.390;-99.256;2023-03-24T04:39:19;12.55;;;11.25;;
20954;SDS011;10636;19.390;-99.256;2023-03-24T04:41:57;12.82;;;11.07;;
20954;SDS011;10636;19.390;-99.256;2023-03-24T04:44:37;12.25;;;10.88;;
20954;SDS011;10636;19.390;-99.256;2023-03-24T04:47:23;12.90;;;10.90;;
20954;SDS011;10636;19.390;-99.256;2023-03-24T04:50:05;13.43;;;10.60;;
20954;SDS011;10636;19.390;-99.256;2023-03-24T04:52:37;11.55;;;10.55;;
20954;SDS011;10636;19.390;-99.256;2023-03-24T04:55:23;12.10;;;10.23;;
20954;SDS011;10636;19.390;-99.256;2023-03-24T04:57:59;11.70;;;10.13;;
20954;SDS011;10636;19.390;-99.256;2023-03-24T05:00:28;11.10;;;9.88;;
20954;SDS011;10636;19.390;-99.256;2023-03-24T05:02:59;10.63;;;9.55;;
20954;SDS011;10636;19.390;-99.256;2023-03-24T05:05:28;10.70;;;9.60;;
20954;SDS011;10636;19.390;-99.256;2023-03-24T05:07:56;10.82;;;9.60;;
20954;SDS011;10636;19.390;-99.256;2023-03-24T05:10:25;9.75;;;8.85;;
20954;SDS011;10636;19.390;-99.256;2023-03-24T05:12:54;12.77;;;9.68;;
20954;SDS011;10636;19.390;-99.256;2023-03-24T05:15:23;10.18;;;9.18;;
20954;SDS011;10636;19.390;-99.256;2023-03-24T05:17:52;10.95;;;9.88;;
20954;SDS011;10636;19.390;-99.256;2023-03-24T05:20:24;10.50;;;9.35;;
20954;SDS011;10636;19.390;-99.256;2023-03-24T05:22:54;10.40;;;9.50;;
20954;SDS011;10636;19.390;-99.256;2023-03-24T05:25:23;10.80;;;9.70;;
20954;SDS011;10636;19.390;-99.256;2023-03-24T05:27:52;10.30;;;9.40;;
20954;SDS011;10636;19.390;-99.256;2023-03-24T05:30:20;10.52;;;9.52;;
20954;SDS011;10636;19.390;-99.256;2023-03-24T05:32:49;9.98;;;8.98;;
20954;SDS011;10636;19.390;-99.256;2023-03-24T05:35:18;9.70;;;8.80;;
20954;SDS011;10636;19.390;-99.256;2023-03-24T05:37:48;10.38;;;9.45;;
20954;SDS011;10636;19.390;-99.256;2023-03-24T05:40:17;9.82;;;9.02;;
20954;SDS011;10636;19.390;-99.256;2023-03-24T05:42:47;9.43;;;8.60;;
20954;SDS011;10636;19.390;-99.256;2023-03-24T05:45:16;9.70;;;8.73;;
20954;SDS011;10636;19.390;-99.256;2023-03-24T05:47:45;10.05;;;9.07;;
20954;SDS011;10636;19.390;-99.256;2023-03-24T05:50:14;9.88;;;8.95;;
20954;SDS011;10636;19.390;-99.256;2023-03-24T05:52:43;9.55;;;8.65;;
20954;SDS011;10636;19.390;-99.256;2023-03-24T05:55:13;9.52;;;8.10;;
20954;SDS011;10636;19.390;-99.256;2023-03-24T05:57:42;9.10;;;8.30;;
20954;SDS011;10636;19.390;-99.256;2023-03-24T06:00:11;9.43;;;8.52;;
20954;SDS011;10636;19.390;-99.256;2023-03-24T06:02:42;9.52;;;8.57;;
20954;SDS011;10636;19.390;-99.256;2023-03-24T06:05:11;9.68;;;8.68;;
20954;SDS011;10636;19.390;-99.256;2023-03-24T06:07:42;9.85;;;8.55;;
20954;SDS011;10636;19.390;-99.256;2023-03-24T06:10:11;9.82;;;8.93;;
20954;SDS011;10636;19.390;-99.256;2023-03-24T06:12:43;9.52;;;8.63;;
20954;SDS011;10636;19.390;-99.256;2023-03-24T06:15:15;11.68;;;9.25;;
20954;SDS011;10636;19.390;-99.256;2023-03-24T06:17:44;9.80;;;8.90;;
20954;SDS011;10636;19.390;-99.256;2023-03-24T06:20:13;9.50;;;8.70;;
20954;SDS011;10636;19.390;-99.256;2023-03-24T06:22:44;9.80;;;8.90;;
20954;SDS011;10636;19.390;-99.256;2023-03-24T06:25:16;9.07;;;8.23;;
20954;SDS011;10636;19.390;-99.256;2023-03-24T06:27:46;9.13;;;8.32;;
20954;SDS011;10636;19.390;-99.256;2023-03-24T06:30:16;9.55;;;8.75;;
20954;SDS011;10636;19.390;-99.256;2023-03-24T06:32:45;9.45;;;8.45;;
20954;SDS011;10636;19.390;-99.256;2023-03-24T06:35:14;9.50;;;8.60;;
20954;SDS011;10636;19.390;-99.256;2023-03-24T06:37:43;9.20;;;8.30;;
20954;SDS011;10636;19.390;-99.256;2023-03-24T06:40:12;8.75;;;7.95;;
20954;SDS011;10636;19.390;-99.256;2023-03-24T06:42:43;8.95;;;8.05;;
20954;SDS011;10636;19.390;-99.256;2023-03-24T06:45:11;8.63;;;7.82;;
20954;SDS011;10636;19.390;-99.256;2023-03-24T06:47:40;8.55;;;7.80;;
20954;SDS011;10636;19.390;-99.256;2023-03-24T06:50:09;7.25;;;6.65;;
20954;SDS011;10636;19.390;-99.256;2023-03-24T06:52:38;8.00;;;7.20;;
20954;SDS011;10636;19.390;-99.256;2023-03-24T06:55:07;8.18;;;7.38;;
20954;SDS011;10636;19.390;-99.256;2023-03-24T06:57:41;7.70;;;6.93;;
20954;SDS011;10636;19.390;-99.256;2023-03-24T07:00:10;7.97;;;7.25;;
20954;SDS011;10636;19.390;-99.256;2023-03-24T07:02:39;7.57;;;6.90;;
20954;SDS011;10636;19.390;-99.256;2023-03-24T07:05:08;7.85;;;7.10;;
20954;SDS011;10636;19.390;-99.256;2023-03-24T07:07:37;7.60;;;6.90;;
20954;SDS011;10636;19.390;-99.256;2023-03-24T07:10:06;7.32;;;6.63;;
20954;SDS011;10636;19.390;-99.256;2023-03-24T07:12:36;7.18;;;6.47;;
20954;SDS011;10636;19.390;-99.256;2023-03-24T07:15:07;7.28;;;6.57;;
20954;SDS011;10636;19.390;-99.256;2023-03-24T07:17:36;6.57;;;6.07;;
20954;SDS011;10636;19.390;-99.256;2023-03-24T07:20:05;6.40;;;5.80;;
20954;SDS011;10636;19.390;-99.256;2023-03-24T07:22:34;6.22;;;5.63;;
20954;SDS011;10636;19.390;-99.256;2023-03-24T07:25:03;6.13;;;5.63;;
20954;SDS011;10636;19.390;-99.256;2023-03-24T07:27:33;6.57;;;5.97;;
20954;SDS011;10636;19.390;-99.256;2023-03-24T07:30:02;6.50;;;5.90;;
20954;SDS011;10636;19.390;-99.256;2023-03-24T07:32:33;6.07;;;5.57;;
20954;SDS011;10636;19.390;-99.256;2023-03-24T07:35:04;6.20;;;5.70;;
20954;SDS011;10636;19.390;-99.256;2023-03-24T07:37:35;6.30;;;5.50;;
20954;SDS011;10636;19.390;-99.256;2023-03-24T07:40:05;5.93;;;5.43;;
20954;SDS011;10636;19.390;-99.256;2023-03-24T07:42:36;5.70;;;5.20;;
20954;SDS011;10636;19.390;-99.256;2023-03-24T07:45:07;5.47;;;5.03;;
20954;SDS011;10636;19.390;-99.256;2023-03-24T07:47:38;5.68;;;5.18;;
20954;SDS011;10636;19.390;-99.256;2023-03-24T07:50:10;5.90;;;5.22;;
20954;SDS011;10636;19.390;-99.256;2023-03-24T07:52:40;5.30;;;4.80;;
20954;SDS011;10636;19.390;-99.256;2023-03-24T07:55:10;5.80;;;5.30;;
20954;SDS011;10636;19.390;-99.256;2023-03-24T07:57:40;5.55;;;5.05;;
20954;SDS011;10636;19.390;-99.256;2023-03-24T08:00:09;5.38;;;4.90;;
20954;SDS011;10636;19.390;-99.256;2023-03-24T08:02:41;5.38;;;4.97;;
20954;SDS011;10636;19.390;-99.256;2023-03-24T08:05:10;5.43;;;4.90;;
20954;SDS011;10636;19.390;-99.256;2023-03-24T08:07:39;5.65;;;4.78;;
20954;SDS011;10636;19.390;-99.256;2023-03-24T08:10:09;4.93;;;4.40;;
20954;SDS011;10636;19.390;-99.256;2023-03-24T08:12:38;4.97;;;4.57;;
20954;SDS011;10636;19.390;-99.256;2023-03-24T08:15:07;4.50;;;4.20;;
20954;SDS011;10636;19.390;-99.256;2023-03-24T08:17:37;4.55;;;4.15;;
20954;SDS011;10636;19.390;-99.256;2023-03-24T08:20:09;4.90;;;4.50;;
20954;SDS011;10636;19.390;-99.256;2023-03-24T08:22:39;5.22;;;4.72;;
20954;SDS011;10636;19.390;-99.256;2023-03-24T08:25:09;4.85;;;4.45;;
20954;SDS011;10636;19.390;-99.256;2023-03-24T08:27:38;4.30;;;4.00;;
20954;SDS011;10636;19.390;-99.256;2023-03-24T08:30:10;4.60;;;4.30;;
20954;SDS011;10636;19.390;-99.256;2023-03-24T08:32:42;4.63;;;4.22;;
20954;SDS011;10636;19.390;-99.256;2023-03-24T08:35:14;4.30;;;4.00;;
20954;SDS011;10636;19.390;-99.256;2023-03-24T08:37:44;4.47;;;4.07;;
20954;SDS011;10636;19.390;-99.256;2023-03-24T08:40:13;4.65;;;4.35;;
20954;SDS011;10636;19.390;-99.256;2023-03-24T08:42:44;4.38;;;4.07;;
20954;SDS011;10636;19.390;-99.256;2023-03-24T08:45:15;4.85;;;4.45;;
20954;SDS011;10636;19.390;-99.256;2023-03-24T08:47:46;5.03;;;4.53;;
20954;SDS011;10636;19.390;-99.256;2023-03-24T08:50:17;5.05;;;4.60;;
20954;SDS011;10636;19.390;-99.256;2023-03-24T08:52:47;5.40;;;4.95;;
20954;SDS011;10636;19.390;-99.256;2023-03-24T08:55:16;5.55;;;5.05;;
20954;SDS011;10636;19.390;-99.256;2023-03-24T08:57:46;5.78;;;5.30;;
20954;SDS011;10636;19.390;-99.256;2023-03-24T09:00:15;5.78;;;5.32;;
20954;SDS011;10636;19.390;-99.256;2023-03-24T09:02:45;6.00;;;5.40;;
20954;SDS011;10636;19.390;-99.256;2023-03-24T09:05:15;5.82;;;5.35;;
20954;SDS011;10636;19.390;-99.256;2023-03-24T09:07:45;5.85;;;5.35;;
20954;SDS011;10636;19.390;-99.256;2023-03-24T09:10:15;5.80;;;5.30;;
20954;SDS011;10636;19.390;-99.256;2023-03-24T09:12:45;6.47;;;5.88;;
20954;SDS011;10636;19.390;-99.256;2023-03-24T09:15:13;6.13;;;5.63;;
20954;SDS011;10636;19.390;-99.256;2023-03-24T09:17:42;6.22;;;5.70;;
20954;SDS011;10636;19.390;-99.256;2023-03-24T09:20:12;5.70;;;5.20;;
20954;SDS011;10636;19.390;-99.256;2023-03-24T09:22:45;6.30;;;5.80;;
20954;SDS011;10636;19.390;-99.256;2023-03-24T09:25:14;6.40;;;5.90;;
20954;SDS011;10636;19.390;-99.256;2023-03-24T09:27:44;6.82;;;6.22;;
20954;SDS011;10636;19.390;-99.256;2023-03-24T09:30:14;7.28;;;6.68;;
20954;SDS011;10636;19.390;-99.256;2023-03-24T09:32:44;6.88;;;6.25;;
20954;SDS011;10636;19.390;-99.256;2023-03-24T09:35:13;7.25;;;6.50;;
20954;SDS011;10636;19.390;-99.256;2023-03-24T09:37:42;7.72;;;6.72;;
20954;SDS011;10636;19.390;-99.256;2023-03-24T09:40:15;7.20;;;6.60;;
20954;SDS011;10636;19.390;-99.256;2023-03-24T09:42:49;7.38;;;6.70;;
20954;SDS011;10636;19.390;-99.256;2023-03-24T09:45:21;7.60;;;7.00;;
20954;SDS011;10636;19.390;-99.256;2023-03-24T09:47:53;7.22;;;6.60;;
20954;SDS011;10636;19.390;-99.256;2023-03-24T09:50:27;6.95;;;6.35;;
20954;SDS011;10636;19.390;-99.256;2023-03-24T09:53:03;7.45;;;6.70;;
20954;SDS011;10636;19.390;-99.256;2023-03-24T09:55:39;8.02;;;6.82;;
20954;SDS011;10636;19.390;-99.256;2023-03-24T09:58:10;7.78;;;7.07;;
20954;SDS011;10636;19.390;-99.256;2023-03-24T10:00:40;7.47;;;6.78;;
20954;SDS011;10636;19.390;-99.256;2023-03-24T10:03:13;8.25;;;6.85;;
20954;SDS011;10636;19.390;-99.256;2023-03-24T10:05:47;7.22;;;6.50;;
20954;SDS011;10636;19.390;-99.256;2023-03-24T10:08:23;7.90;;;7.10;;
20954;SDS011;10636;19.390;-99.256;2023-03-24T10:10:58;7.88;;;7.18;;
20954;SDS011;10636;19.390;-99.256;2023-03-24T10:13:34;8.30;;;7.43;;
20954;SDS011;10636;19.390;-99.256;2023-03-24T10:16:14;7.45;;;6.85;;
20954;SDS011;10636;19.390;-99.256;2023-03-24T10:18:51;9.27;;;6.65;;
20954;SDS011;10636;19.390;-99.256;2023-03-24T10:21:25;7.53;;;6.82;;
20954;SDS011;10636;19.390;-99.256;2023-03-24T10:23:59;7.80;;;7.00;;
20954;SDS011;10636;19.390;-99.256;2023-03-24T10:26:36;7.35;;;6.65;;
20954;SDS011;10636;19.390;-99.256;2023-03-24T10:29:14;7.10;;;6.40;;
20954;SDS011;10636;19.390;-99.256;2023-03-24T10:31:52;6.90;;;6.30;;
20954;SDS011;10636;19.390;-99.256;2023-03-24T10:34:25;7.40;;;6.80;;
20954;SDS011;10636;19.390;-99.256;2023-03-24T10:36:57;7.22;;;6.63;;
20954;SDS011;10636;19.390;-99.256;2023-03-24T10:39:29;7.22;;;6.53;;
20954;SDS011;10636;19.390;-99.256;2023-03-24T10:41:59;7.68;;;7.00;;
20954;SDS011;10636;19.390;-99.256;2023-03-24T10:44:28;7.70;;;7.00;;
20954;SDS011;10636;19.390;-99.256;2023-03-24T10:46:58;7.50;;;6.90;;
20954;SDS011;10636;19.390;-99.256;2023-03-24T10:49:33;7.00;;;6.40;;
20954;SDS011;10636;19.390;-99.256;2023-03-24T10:52:04;7.60;;;6.80;;
20954;SDS011;10636;19.390;-99.256;2023-03-24T10:54:37;7.45;;;6.63;;
20954;SDS011;10636;19.390;-99.256;2023-03-24T10:57:22;7.50;;;6.90;;
20954;SDS011;10636;19.390;-99.256;2023-03-24T10:59:52;7.72;;;7.03;;
20954;SDS011;10636;19.390;-99.256;2023-03-24T11:02:23;6.97;;;6.32;;
20954;SDS011;10636;19.390;-99.256;2023-03-24T11:04:54;7.35;;;6.63;;
20954;SDS011;10636;19.390;-99.256;2023-03-24T11:07:28;6.93;;;6.32;;
20954;SDS011;10636;19.390;-99.256;2023-03-24T11:10:01;7.13;;;6.53;;
20954;SDS011;10636;19.390;-99.256;2023-03-24T11:12:33;6.57;;;6.07;;
20954;SDS011;10636;19.390;-99.256;2023-03-24T11:15:12;7.30;;;6.70;;
20954;SDS011;10636;19.390;-99.256;2023-03-24T11:17:44;7.05;;;6.45;;
20954;SDS011;10636;19.390;-99.256;2023-03-24T11:20:17;7.82;;;7.15;;
20954;SDS011;10636;19.390;-99.256;2023-03-24T11:22:54;8.20;;;7.40;;
20954;SDS011;10636;19.390;-99.256;2023-03-24T11:25:28;7.50;;;6.80;;
20954;SDS011;10636;19.390;-99.256;2023-03-24T11:27:59;8.13;;;7.22;;
20954;SDS011;10636;19.390;-99.256;2023-03-24T11:30:33;7.53;;;6.82;;
20954;SDS011;10636;19.390;-99.256;2023-03-24T11:33:14;8.15;;;7.35;;
20954;SDS011;10636;19.390;-99.256;2023-03-24T11:35:47;9.98;;;7.03;;
20954;SDS011;10636;19.390;-99.256;2023-03-24T11:38:16;8.32;;;7.50;;
20954;SDS011;10636;19.390;-99.256;2023-03-24T11:40:53;8.02;;;7.32;;
20954;SDS011;10636;19.390;-99.256;2023-03-24T11:43:24;7.90;;;7.07;;
20954;SDS011;10636;19.390;-99.256;2023-03-24T11:45:55;9.63;;;8.63;;
20954;SDS011;10636;19.390;-99.256;2023-03-24T11:48:30;9.32;;;8.40;;
20954;SDS011;10636;19.390;-99.256;2023-03-24T11:51:05;9.10;;;8.30;;
20954;SDS011;10636;19.390;-99.256;2023-03-24T11:53:37;10.27;;;8.05;;
20954;SDS011;10636;19.390;-99.256;2023-03-24T11:56:14;8.95;;;8.13;;
20954;SDS011;10636;19.390;-99.256;2023-03-24T11:58:51;10.00;;;8.93;;
20954;SDS011;10636;19.390;-99.256;2023-03-24T12:01:29;9.30;;;8.40;;
20954;SDS011;10636;19.390;-99.256;2023-03-24T12:04:14;10.38;;;8.50;;
20954;SDS011;10636;19.390;-99.256;2023-03-24T12:06:54;8.63;;;7.78;;
20954;SDS011;10636;19.390;-99.256;2023-03-24T12:09:34;10.15;;;8.13;;
20954;SDS011;10636;19.390;-99.256;2023-03-24T12:12:19;9.25;;;7.90;;
20954;SDS011;10636;19.390;-99.256;2023-03-24T12:14:58;9.38;;;8.52;;
20954;SDS011;10636;19.390;-99.256;2023-03-24T12:17:46;9.27;;;8.38;;
20954;SDS011;10636;19.390;-99.256;2023-03-24T12:20:22;9.13;;;8.10;;
20954;SDS011;10636;19.390;-99.256;2023-03-24T12:22:58;9.80;;;8.27;;
20954;SDS011;10636;19.390;-99.256;2023-03-24T12:25:35;8.65;;;7.75;;
20954;SDS011;10636;19.390;-99.256;2023-03-24T12:28:18;10.48;;;8.23;;
20954;SDS011;10636;19.390;-99.256;2023-03-24T12:31:07;8.82;;;7.88;;
20954;SDS011;10636;19.390;-99.256;2023-03-24T12:33:52;8.98;;;7.82;;
20954;SDS011;10636;19.390;-99.256;2023-03-24T12:36:32;9.40;;;8.45;;
20954;SDS011;10636;19.390;-99.256;2023-03-24T12:39:09;9.80;;;8.65;;
20954;SDS011;10636;19.390;-99.256;2023-03-24T12:41:50;10.00;;;8.43;;
20954;SDS011;10636;19.390;-99.256;2023-03-24T12:47:35;9.45;;;8.07;;
20954;SDS011;10636;19.390;-99.256;2023-03-24T12:50:18;10.43;;;8.48;;
20954;SDS011;10636;19.390;-99.256;2023-03-24T12:52:59;9.68;;;8.60;;
20954;SDS011;10636;19.390;-99.256;2023-03-24T12:55:38;8.88;;;7.95;;
20954;SDS011;10636;19.390;-99.256;2023-03-24T12:58:13;9.48;;;8.57;;
20954;SDS011;10636;19.390;-99.256;2023-03-24T13:00:48;9.52;;;8.52;;
20954;SDS011;10636;19.390;-99.256;2023-03-24T13:03:28;8.82;;;8.02;;
20954;SDS011;10636;19.390;-99.256;2023-03-24T13:06:03;10.05;;;8.80;;
20954;SDS011;10636;19.390;-99.256;2023-03-24T13:08:39;10.07;;;8.95;;
20954;SDS011;10636;19.390;-99.256;2023-03-24T13:11:13;10.63;;;9.30;;
20954;SDS011;10636;19.390;-99.256;2023-03-24T13:13:46;10.55;;;8.90;;
20954;SDS011;10636;19.390;-99.256;2023-03-24T13:16:17;10.80;;;8.93;;
20954;SDS011;10636;19.390;-99.256;2023-03-24T13:18:52;10.27;;;8.85;;
20954;SDS011;10636;19.390;-99.256;2023-03-24T13:21:24;10.40;;;9.00;;
20954;SDS011;10636;19.390;-99.256;2023-03-24T13:23:55;11.30;;;9.88;;
20954;SDS011;10636;19.390;-99.256;2023-03-24T13:26:35;10.45;;;9.40;;
20954;SDS011;10636;19.390;-99.256;2023-03-24T13:29:13;10.38;;;9.10;;
20954;SDS011;10636;19.390;-99.256;2023-03-24T13:31:53;10.55;;;9.35;;
20954;SDS011;10636;19.390;-99.256;2023-03-24T13:34:30;12.52;;;9.35;;
20954;SDS011;10636;19.390;-99.256;2023-03-24T13:37:02;12.10;;;9.60;;
20954;SDS011;10636;19.390;-99.256;2023-03-24T13:39:36;10.30;;;9.00;;
20954;SDS011;10636;19.390;-99.256;2023-03-24T13:42:19;11.07;;;9.85;;
20954;SDS011;10636;19.390;-99.256;2023-03-24T13:44:58;10.50;;;9.05;;
20954;SDS011;10636;19.390;-99.256;2023-03-24T13:50:17;12.88;;;10.35;;
20954;SDS011;10636;19.390;-99.256;2023-03-24T13:52:46;14.20;;;10.48;;
20954;SDS011;10636;19.390;-99.256;2023-03-24T13:55:18;12.13;;;9.75;;
20954;SDS011;10636;19.390;-99.256;2023-03-24T13:57:52;12.88;;;10.50;;
20954;SDS011;10636;19.390;-99.256;2023-03-24T14:00:23;13.65;;;10.70;;
20954;SDS011;10636;19.390;-99.256;2023-03-24T14:02:53;15.60;;;11.40;;
20954;SDS011;10636;19.390;-99.256;2023-03-24T14:05:38;15.55;;;11.98;;
20954;SDS011;10636;19.390;-99.256;2023-03-24T14:08:09;15.43;;;11.98;;
20954;SDS011;10636;19.390;-99.256;2023-03-24T14:10:41;15.95;;;11.95;;
20954;SDS011;10636;19.390;-99.256;2023-03-24T14:13:21;18.75;;;12.57;;
20954;SDS011;10636;19.390;-99.256;2023-03-24T14:15:59;13.90;;;11.57;;
20954;SDS011;10636;19.390;-99.256;2023-03-24T14:19:09;16.27;;;12.45;;
20954;SDS011;10636;19.390;-99.256;2023-03-24T14:21:55;18.90;;;12.55;;
20954;SDS011;10636;19.390;-99.256;2023-03-24T14:24:26;17.35;;;13.07;;
20954;SDS011;10636;19.390;-99.256;2023-03-24T14:26:59;15.50;;;12.52;;
20954;SDS011;10636;19.390;-99.256;2023-03-24T14:29:38;16.25;;;12.93;;
20954;SDS011;10636;19.390;-99.256;2023-03-24T14:32:14;14.95;;;12.20;;
20954;SDS011;10636;19.390;-99.256;2023-03-24T14:34:54;13.73;;;12.25;;
20954;SDS011;10636;19.390;-99.256;2023-03-24T14:37:26;16.02;;;11.95;;
20954;SDS011;10636;19.390;-99.256;2023-03-24T14:39:56;16.77;;;12.20;;
20954;SDS011;10636;19.390;-99.256;2023-03-24T14:45:38;16.60;;;13.60;;
20954;SDS011;10636;19.390;-99.256;2023-03-24T14:48:27;18.42;;;14.25;;
20954;SDS011;10636;19.390;-99.256;2023-03-24T14:51:15;15.18;;;13.57;;
20954;SDS011;10636;19.390;-99.256;2023-03-24T14:54:02;15.05;;;13.40;;
20954;SDS011;10636;19.390;-99.256;2023-03-24T14:56:34;16.52;;;13.57;;
20954;SDS011;10636;19.390;-99.256;2023-03-24T14:59:10;15.48;;;13.93;;
20954;SDS011;10636;19.390;-99.256;2023-03-24T15:01:49;14.20;;;12.70;;
20954;SDS011;10636;19.390;-99.256;2023-03-24T15:04:22;16.65;;;13.32;;
20954;SDS011;10636;19.390;-99.256;2023-03-24T15:06:50;16.70;;;13.45;;
20954;SDS011;10636;19.390;-99.256;2023-03-24T15:09:21;15.70;;;13.68;;
20954;SDS011;10636;19.390;-99.256;2023-03-24T15:11:49;15.85;;;13.90;;
20954;SDS011;10636;19.390;-99.256;2023-03-24T15:14:19;15.85;;;13.35;;
20954;SDS011;10636;19.390;-99.256;2023-03-24T15:16:50;15.60;;;13.80;;
20954;SDS011;10636;19.390;-99.256;2023-03-24T15:19:25;17.42;;;14.52;;